sensor_id;sensor_type;location;lat;lon;timestamp;P1;durP1;ratioP1;P2;durP2;ratioP2
27163;SDS011;14685;50.618;7.024;2023-08-06T00:01:53;2.97;;;1.80;;
27163;SDS011;14685;50.618;7.024;2023-08-06T00:04:20;3.35;;;1.50;;
27163;SDS011;14685;50.618;7.024;2023-08-06T00:06:47;3.63;;;1.48;;
27163;SDS011;14685;50.618;7.024;2023-08-06T00:09:14;2.65;;;1.65;;
27163;SDS011;14685;50.618;7.024;2023-08-06T00:11:41;2.13;;;1.67;;
27163;SDS011;14685;50.618;7.024;2023-08-06T00:14:10;1.98;;;1.45;;
27163;SDS011;14685;50.618;7.024;2023-08-06T00:16:37;1.88;;;1.30;;
27163;SDS011;14685;50.618;7.024;2023-08-06T00:19:04;2.45;;;1.80;;
27163;SDS011;14685;50.618;7.024;2023-08-06T00:21:32;2.55;;;1.77;;
27163;SDS011;14685;50.618;7.024;2023-08-06T00:23:59;1.88;;;1.67;;
27163;SDS011;14685;50.618;7.024;2023-08-06T00:26:25;2.25;;;1.40;;
27163;SDS011;14685;50.618;7.024;2023-08-06T00:28:53;2.88;;;1.67;;
27163;SDS011;14685;50.618;7.024;2023-08-06T00:31:20;1.88;;;1.55;;
27163;SDS011;14685;50.618;7.024;2023-08-06T00:33:47;1.52;;;1.33;;
27163;SDS011;14685;50.618;7.024;2023-08-06T00:36:13;2.90;;;1.98;;
27163;SDS011;14685;50.618;7.024;2023-08-06T00:38:40;5.38;;;1.80;;
27163;SDS011;14685;50.618;7.024;2023-08-06T00:41:07;2.38;;;1.70;;
27163;SDS011;14685;50.618;7.024;2023-08-06T00:43:34;2.33;;;1.80;;
27163;SDS011;14685;50.618;7.024;2023-08-06T00:46:01;4.28;;;1.90;;
27163;SDS011;14685;50.618;7.024;2023-08-06T00:48:28;3.55;;;2.03;;
27163;SDS011;14685;50.618;7.024;2023-08-06T00:50:55;5.18;;;2.10;;
27163;SDS011;14685;50.618;7.024;2023-08-06T00:53:22;2.83;;;1.70;;
27163;SDS011;14685;50.618;7.024;2023-08-06T00:55:50;1.83;;;1.40;;
27163;SDS011;14685;50.618;7.024;2023-08-06T00:58:18;3.20;;;1.70;;
27163;SDS011;14685;50.618;7.024;2023-08-06T01:00:45;2.90;;;1.83;;
27163;SDS011;14685;50.618;7.024;2023-08-06T01:03:13;3.83;;;1.80;;
27163;SDS011;14685;50.618;7.024;2023-08-06T01:05:40;1.73;;;1.58;;
27163;SDS011;14685;50.618;7.024;2023-08-06T01:14:02;2.85;;;1.25;;
27163;SDS011;14685;50.618;7.024;2023-08-06T01:16:45;4.68;;;1.50;;
27163;SDS011;14685;50.618;7.024;2023-08-06T01:19:18;2.55;;;1.05;;
27163;SDS011;14685;50.618;7.024;2023-08-06T01:21:45;3.30;;;1.40;;
27163;SDS011;14685;50.618;7.024;2023-08-06T01:24:12;3.92;;;1.70;;
27163;SDS011;14685;50.618;7.024;2023-08-06T01:26:45;2.45;;;1.33;;
27163;SDS011;14685;50.618;7.024;2023-08-06T01:29:31;3.03;;;1.52;;
27163;SDS011;14685;50.618;7.024;2023-08-06T01:32:05;2.30;;;1.10;;
27163;SDS011;14685;50.618;7.024;2023-08-06T01:34:35;2.83;;;1.50;;
27163;SDS011;14685;50.618;7.024;2023-08-06T01:37:05;4.45;;;1.42;;
27163;SDS011;14685;50.618;7.024;2023-08-06T01:39:33;2.63;;;1.75;;
27163;SDS011;14685;50.618;7.024;2023-08-06T01:42:00;3.47;;;1.73;;
27163;SDS011;14685;50.618;7.024;2023-08-06T01:44:27;5.20;;;1.70;;
27163;SDS011;14685;50.618;7.024;2023-08-06T01:46:54;5.93;;;1.50;;
27163;SDS011;14685;50.618;7.024;2023-08-06T01:49:21;4.35;;;1.70;;
27163;SDS011;14685;50.618;7.024;2023-08-06T01:51:48;1.92;;;1.35;;
27163;SDS011;14685;50.618;7.024;2023-08-06T01:54:16;3.25;;;1.80;;
27163;SDS011;14685;50.618;7.024;2023-08-06T01:56:43;3.50;;;1.38;;
27163;SDS011;14685;50.618;7.024;2023-08-06T01:59:11;6.55;;;1.52;;
27163;SDS011;14685;50.618;7.024;2023-08-06T02:01:38;3.92;;;1.63;;
27163;SDS011;14685;50.618;7.024;2023-08-06T02:04:05;2.67;;;1.35;;
27163;SDS011;14685;50.618;7.024;2023-08-06T02:06:31;4.57;;;1.98;;
27163;SDS011;14685;50.618;7.024;2023-08-06T02:08:58;7.13;;;1.77;;
27163;SDS011;14685;50.618;7.024;2023-08-06T02:11:25;1.65;;;1.25;;
27163;SDS011;14685;50.618;7.024;2023-08-06T02:13:52;2.42;;;1.35;;
27163;SDS011;14685;50.618;7.024;2023-08-06T02:16:19;4.30;;;1.65;;
27163;SDS011;14685;50.618;7.024;2023-08-06T02:18:46;2.33;;;1.58;;
27163;SDS011;14685;50.618;7.024;2023-08-06T02:21:13;4.90;;;1.58;;
27163;SDS011;14685;50.618;7.024;2023-08-06T02:23:41;2.72;;;1.75;;
27163;SDS011;14685;50.618;7.024;2023-08-06T02:26:08;4.70;;;1.80;;
27163;SDS011;14685;50.618;7.024;2023-08-06T02:28:35;4.28;;;1.50;;
27163;SDS011;14685;50.618;7.024;2023-08-06T02:31:02;3.35;;;1.50;;
27163;SDS011;14685;50.618;7.024;2023-08-06T02:33:29;4.60;;;1.77;;
27163;SDS011;14685;50.618;7.024;2023-08-06T02:35:59;3.95;;;1.83;;
27163;SDS011;14685;50.618;7.024;2023-08-06T02:38:27;2.22;;;1.73;;
27163;SDS011;14685;50.618;7.024;2023-08-06T02:40:54;5.63;;;1.38;;
27163;SDS011;14685;50.618;7.024;2023-08-06T02:43:21;3.85;;;1.92;;
27163;SDS011;14685;50.618;7.024;2023-08-06T02:45:48;3.40;;;1.83;;
27163;SDS011;14685;50.618;7.024;2023-08-06T02:48:15;4.45;;;1.55;;
27163;SDS011;14685;50.618;7.024;2023-08-06T02:50:44;1.95;;;1.45;;
27163;SDS011;14685;50.618;7.024;2023-08-06T02:53:11;3.58;;;1.63;;
27163;SDS011;14685;50.618;7.024;2023-08-06T02:55:38;6.72;;;1.98;;
27163;SDS011;14685;50.618;7.024;2023-08-06T02:58:14;3.47;;;1.92;;
27163;SDS011;14685;50.618;7.024;2023-08-06T03:00:41;4.63;;;2.00;;
27163;SDS011;14685;50.618;7.024;2023-08-06T03:03:09;6.65;;;1.63;;
27163;SDS011;14685;50.618;7.024;2023-08-06T03:05:36;3.72;;;1.50;;
27163;SDS011;14685;50.618;7.024;2023-08-06T03:08:03;3.00;;;1.73;;
27163;SDS011;14685;50.618;7.024;2023-08-06T03:10:30;3.72;;;1.75;;
27163;SDS011;14685;50.618;7.024;2023-08-06T03:12:57;3.22;;;1.80;;
27163;SDS011;14685;50.618;7.024;2023-08-06T03:15:24;2.05;;;1.38;;
27163;SDS011;14685;50.618;7.024;2023-08-06T03:17:51;5.65;;;2.03;;
27163;SDS011;14685;50.618;7.024;2023-08-06T03:20:18;3.58;;;1.58;;
27163;SDS011;14685;50.618;7.024;2023-08-06T03:22:45;2.90;;;1.35;;
27163;SDS011;14685;50.618;7.024;2023-08-06T03:25:12;6.20;;;1.73;;
27163;SDS011;14685;50.618;7.024;2023-08-06T03:27:39;3.90;;;1.88;;
27163;SDS011;14685;50.618;7.024;2023-08-06T03:30:07;2.85;;;1.65;;
27163;SDS011;14685;50.618;7.024;2023-08-06T03:32:36;3.22;;;1.70;;
27163;SDS011;14685;50.618;7.024;2023-08-06T03:35:02;2.80;;;1.73;;
27163;SDS011;14685;50.618;7.024;2023-08-06T03:37:30;3.05;;;1.33;;
27163;SDS011;14685;50.618;7.024;2023-08-06T03:39:57;3.47;;;1.42;;
27163;SDS011;14685;50.618;7.024;2023-08-06T03:42:24;5.35;;;1.60;;
27163;SDS011;14685;50.618;7.024;2023-08-06T03:44:51;2.50;;;1.55;;
27163;SDS011;14685;50.618;7.024;2023-08-06T03:47:18;2.00;;;1.60;;
27163;SDS011;14685;50.618;7.024;2023-08-06T03:49:46;2.55;;;1.27;;
27163;SDS011;14685;50.618;7.024;2023-08-06T03:52:13;3.45;;;1.45;;
27163;SDS011;14685;50.618;7.024;2023-08-06T03:54:40;2.53;;;1.35;;
27163;SDS011;14685;50.618;7.024;2023-08-06T03:57:09;2.33;;;1.42;;
27163;SDS011;14685;50.618;7.024;2023-08-06T03:59:36;4.30;;;1.55;;
27163;SDS011;14685;50.618;7.024;2023-08-06T04:02:03;4.60;;;1.58;;
27163;SDS011;14685;50.618;7.024;2023-08-06T04:04:32;3.72;;;1.40;;
27163;SDS011;14685;50.618;7.024;2023-08-06T04:06:59;2.75;;;1.60;;
27163;SDS011;14685;50.618;7.024;2023-08-06T04:09:27;4.72;;;1.52;;
27163;SDS011;14685;50.618;7.024;2023-08-06T04:11:55;2.67;;;1.80;;
27163;SDS011;14685;50.618;7.024;2023-08-06T04:14:22;4.03;;;1.50;;
27163;SDS011;14685;50.618;7.024;2023-08-06T04:16:49;2.95;;;1.40;;
27163;SDS011;14685;50.618;7.024;2023-08-06T04:19:16;3.00;;;1.10;;
27163;SDS011;14685;50.618;7.024;2023-08-06T04:21:43;3.13;;;1.40;;
27163;SDS011;14685;50.618;7.024;2023-08-06T04:24:10;4.22;;;1.35;;
27163;SDS011;14685;50.618;7.024;2023-08-06T04:26:43;2.83;;;1.25;;
27163;SDS011;14685;50.618;7.024;2023-08-06T04:29:10;3.67;;;1.40;;
27163;SDS011;14685;50.618;7.024;2023-08-06T04:31:37;4.75;;;1.50;;
27163;SDS011;14685;50.618;7.024;2023-08-06T04:34:04;5.03;;;1.60;;
27163;SDS011;14685;50.618;7.024;2023-08-06T04:36:31;2.00;;;1.40;;
27163;SDS011;14685;50.618;7.024;2023-08-06T04:38:58;3.58;;;1.48;;
27163;SDS011;14685;50.618;7.024;2023-08-06T04:41:25;1.48;;;1.27;;
27163;SDS011;14685;50.618;7.024;2023-08-06T04:43:52;3.25;;;1.27;;
27163;SDS011;14685;50.618;7.024;2023-08-06T04:46:19;2.20;;;1.17;;
27163;SDS011;14685;50.618;7.024;2023-08-06T04:48:47;2.13;;;1.08;;
27163;SDS011;14685;50.618;7.024;2023-08-06T04:51:15;3.67;;;1.10;;
27163;SDS011;14685;50.618;7.024;2023-08-06T04:53:43;1.70;;;1.10;;
27163;SDS011;14685;50.618;7.024;2023-08-06T04:56:11;0.80;;;0.80;;
27163;SDS011;14685;50.618;7.024;2023-08-06T04:58:38;1.42;;;1.10;;
27163;SDS011;14685;50.618;7.024;2023-08-06T05:01:06;1.85;;;1.08;;
27163;SDS011;14685;50.618;7.024;2023-08-06T05:03:33;2.47;;;1.27;;
27163;SDS011;14685;50.618;7.024;2023-08-06T05:06:00;3.42;;;1.27;;
27163;SDS011;14685;50.618;7.024;2023-08-06T05:08:28;1.45;;;0.90;;
27163;SDS011;14685;50.618;7.024;2023-08-06T05:10:56;1.27;;;0.70;;
27163;SDS011;14685;50.618;7.024;2023-08-06T05:13:26;1.00;;;0.77;;
27163;SDS011;14685;50.618;7.024;2023-08-06T05:15:53;1.95;;;1.00;;
27163;SDS011;14685;50.618;7.024;2023-08-06T05:18:20;1.25;;;0.80;;
27163;SDS011;14685;50.618;7.024;2023-08-06T05:20:48;0.80;;;0.80;;
27163;SDS011;14685;50.618;7.024;2023-08-06T05:23:15;2.60;;;1.17;;
27163;SDS011;14685;50.618;7.024;2023-08-06T05:25:42;1.55;;;1.00;;
27163;SDS011;14685;50.618;7.024;2023-08-06T05:28:10;1.63;;;1.05;;
27163;SDS011;14685;50.618;7.024;2023-08-06T05:30:40;1.98;;;1.10;;
27163;SDS011;14685;50.618;7.024;2023-08-06T05:33:07;2.30;;;0.90;;
27163;SDS011;14685;50.618;7.024;2023-08-06T05:35:34;3.58;;;0.75;;
27163;SDS011;14685;50.618;7.024;2023-08-06T05:38:03;1.63;;;0.73;;
27163;SDS011;14685;50.618;7.024;2023-08-06T05:40:32;1.58;;;0.60;;
27163;SDS011;14685;50.618;7.024;2023-08-06T05:43:02;0.60;;;0.57;;
27163;SDS011;14685;50.618;7.024;2023-08-06T05:45:29;0.60;;;0.50;;
27163;SDS011;14685;50.618;7.024;2023-08-06T05:47:57;0.40;;;0.40;;
27163;SDS011;14685;50.618;7.024;2023-08-06T05:50:26;1.70;;;0.75;;
27163;SDS011;14685;50.618;7.024;2023-08-06T05:52:54;1.55;;;0.47;;
27163;SDS011;14685;50.618;7.024;2023-08-06T05:55:20;0.88;;;0.43;;
27163;SDS011;14685;50.618;7.024;2023-08-06T05:57:48;2.90;;;0.57;;
27163;SDS011;14685;50.618;7.024;2023-08-06T06:00:18;1.50;;;0.73;;
27163;SDS011;14685;50.618;7.024;2023-08-06T06:02:45;1.25;;;0.70;;
27163;SDS011;14685;50.618;7.024;2023-08-06T06:05:13;1.90;;;0.70;;
27163;SDS011;14685;50.618;7.024;2023-08-06T06:07:43;3.95;;;0.95;;
27163;SDS011;14685;50.618;7.024;2023-08-06T06:10:11;3.78;;;0.77;;
27163;SDS011;14685;50.618;7.024;2023-08-06T06:12:38;0.77;;;0.50;;
27163;SDS011;14685;50.618;7.024;2023-08-06T06:15:08;0.98;;;0.40;;
27163;SDS011;14685;50.618;7.024;2023-08-06T06:17:36;0.93;;;0.45;;
27163;SDS011;14685;50.618;7.024;2023-08-06T06:20:03;2.13;;;0.40;;
27163;SDS011;14685;50.618;7.024;2023-08-06T06:22:31;0.50;;;0.50;;
27163;SDS011;14685;50.618;7.024;2023-08-06T06:25:01;1.65;;;0.57;;
27163;SDS011;14685;50.618;7.024;2023-08-06T06:27:29;0.52;;;0.50;;
27163;SDS011;14685;50.618;7.024;2023-08-06T06:29:59;0.40;;;0.40;;
27163;SDS011;14685;50.618;7.024;2023-08-06T06:32:29;0.60;;;0.50;;
27163;SDS011;14685;50.618;7.024;2023-08-06T06:34:56;1.33;;;0.50;;
27163;SDS011;14685;50.618;7.024;2023-08-06T06:37:23;0.82;;;0.70;;
27163;SDS011;14685;50.618;7.024;2023-08-06T06:39:50;0.55;;;0.55;;
27163;SDS011;14685;50.618;7.024;2023-08-06T06:42:17;2.42;;;0.88;;
27163;SDS011;14685;50.618;7.024;2023-08-06T06:44:45;0.50;;;0.50;;
27163;SDS011;14685;50.618;7.024;2023-08-06T06:47:12;2.83;;;0.50;;
27163;SDS011;14685;50.618;7.024;2023-08-06T06:49:39;0.93;;;0.60;;
27163;SDS011;14685;50.618;7.024;2023-08-06T06:52:06;0.50;;;0.50;;
27163;SDS011;14685;50.618;7.024;2023-08-06T06:54:35;2.53;;;0.75;;
27163;SDS011;14685;50.618;7.024;2023-08-06T06:57:02;0.63;;;0.50;;
27163;SDS011;14685;50.618;7.024;2023-08-06T06:59:29;0.60;;;0.60;;
27163;SDS011;14685;50.618;7.024;2023-08-06T07:01:57;1.88;;;0.65;;
27163;SDS011;14685;50.618;7.024;2023-08-06T07:04:24;1.17;;;0.77;;
27163;SDS011;14685;50.618;7.024;2023-08-06T07:06:51;0.70;;;0.70;;
27163;SDS011;14685;50.618;7.024;2023-08-06T07:09:19;3.60;;;1.00;;
27163;SDS011;14685;50.618;7.024;2023-08-06T07:11:46;0.50;;;0.50;;
27163;SDS011;14685;50.618;7.024;2023-08-06T07:14:14;3.55;;;0.80;;
27163;SDS011;14685;50.618;7.024;2023-08-06T07:16:44;1.13;;;0.85;;
27163;SDS011;14685;50.618;7.024;2023-08-06T07:19:11;1.20;;;0.98;;
27163;SDS011;14685;50.618;7.024;2023-08-06T07:21:39;1.85;;;1.00;;
27163;SDS011;14685;50.618;7.024;2023-08-06T07:24:06;1.63;;;1.08;;
27163;SDS011;14685;50.618;7.024;2023-08-06T07:26:33;3.08;;;0.95;;
27163;SDS011;14685;50.618;7.024;2023-08-06T07:29:00;1.23;;;1.05;;
27163;SDS011;14685;50.618;7.024;2023-08-06T07:31:27;2.80;;;0.90;;
27163;SDS011;14685;50.618;7.024;2023-08-06T07:33:54;2.85;;;1.10;;
27163;SDS011;14685;50.618;7.024;2023-08-06T07:36:21;1.40;;;1.08;;
27163;SDS011;14685;50.618;7.024;2023-08-06T07:38:48;1.50;;;1.13;;
27163;SDS011;14685;50.618;7.024;2023-08-06T07:41:18;1.13;;;1.10;;
27163;SDS011;14685;50.618;7.024;2023-08-06T07:43:44;0.80;;;0.80;;
27163;SDS011;14685;50.618;7.024;2023-08-06T07:46:11;1.77;;;1.40;;
27163;SDS011;14685;50.618;7.024;2023-08-06T07:48:39;1.15;;;1.05;;
27163;SDS011;14685;50.618;7.024;2023-08-06T07:51:07;2.75;;;1.55;;
27163;SDS011;14685;50.618;7.024;2023-08-06T07:53:34;2.75;;;1.45;;
27163;SDS011;14685;50.618;7.024;2023-08-06T07:56:01;0.88;;;0.88;;
27163;SDS011;14685;50.618;7.024;2023-08-06T07:58:28;2.78;;;1.23;;
27163;SDS011;14685;50.618;7.024;2023-08-06T08:00:56;1.73;;;1.13;;
27163;SDS011;14685;50.618;7.024;2023-08-06T08:03:23;3.53;;;1.20;;
27163;SDS011;14685;50.618;7.024;2023-08-06T08:05:53;1.60;;;1.27;;
27163;SDS011;14685;50.618;7.024;2023-08-06T08:08:24;1.77;;;1.30;;
27163;SDS011;14685;50.618;7.024;2023-08-06T08:10:51;2.28;;;1.40;;
27163;SDS011;14685;50.618;7.024;2023-08-06T08:13:18;1.65;;;1.48;;
27163;SDS011;14685;50.618;7.024;2023-08-06T08:15:45;1.65;;;0.93;;
27163;SDS011;14685;50.618;7.024;2023-08-06T08:18:12;1.15;;;1.05;;
27163;SDS011;14685;50.618;7.024;2023-08-06T08:20:39;1.48;;;1.35;;
27163;SDS011;14685;50.618;7.024;2023-08-06T08:23:06;1.23;;;1.13;;
27163;SDS011;14685;50.618;7.024;2023-08-06T08:25:33;4.38;;;1.20;;
27163;SDS011;14685;50.618;7.024;2023-08-06T08:28:00;1.42;;;0.77;;
27163;SDS011;14685;50.618;7.024;2023-08-06T08:30:27;1.55;;;1.27;;
27163;SDS011;14685;50.618;7.024;2023-08-06T08:32:54;1.08;;;1.00;;
27163;SDS011;14685;50.618;7.024;2023-08-06T08:35:21;0.93;;;0.93;;
27163;SDS011;14685;50.618;7.024;2023-08-06T08:37:48;1.17;;;1.08;;
27163;SDS011;14685;50.618;7.024;2023-08-06T08:40:17;1.70;;;1.40;;
27163;SDS011;14685;50.618;7.024;2023-08-06T08:42:44;1.85;;;1.40;;
27163;SDS011;14685;50.618;7.024;2023-08-06T08:45:12;1.67;;;1.40;;
27163;SDS011;14685;50.618;7.024;2023-08-06T08:47:41;2.35;;;1.20;;
27163;SDS011;14685;50.618;7.024;2023-08-06T08:50:10;0.90;;;0.90;;
27163;SDS011;14685;50.618;7.024;2023-08-06T08:52:38;1.88;;;1.20;;
27163;SDS011;14685;50.618;7.024;2023-08-06T08:55:07;1.25;;;1.00;;
27163;SDS011;14685;50.618;7.024;2023-08-06T08:57:34;1.20;;;1.10;;
27163;SDS011;14685;50.618;7.024;2023-08-06T09:00:03;1.50;;;1.10;;
27163;SDS011;14685;50.618;7.024;2023-08-06T09:02:32;1.10;;;1.00;;
27163;SDS011;14685;50.618;7.024;2023-08-06T09:05:00;1.13;;;1.02;;
27163;SDS011;14685;50.618;7.024;2023-08-06T09:07:35;1.00;;;0.90;;
27163;SDS011;14685;50.618;7.024;2023-08-06T09:10:12;1.10;;;1.00;;
27163;SDS011;14685;50.618;7.024;2023-08-06T09:12:44;0.82;;;0.80;;
27163;SDS011;14685;50.618;7.024;2023-08-06T09:15:13;2.72;;;0.90;;
27163;SDS011;14685;50.618;7.024;2023-08-06T09:17:41;1.25;;;1.00;;
27163;SDS011;14685;50.618;7.024;2023-08-06T09:20:09;1.83;;;0.90;;
27163;SDS011;14685;50.618;7.024;2023-08-06T09:22:40;1.55;;;1.02;;
27163;SDS011;14685;50.618;7.024;2023-08-06T09:25:08;1.15;;;0.60;;
27163;SDS011;14685;50.618;7.024;2023-08-06T09:27:40;0.65;;;0.60;;
27163;SDS011;14685;50.618;7.024;2023-08-06T09:30:07;0.40;;;0.40;;
27163;SDS011;14685;50.618;7.024;2023-08-06T09:32:46;0.73;;;0.50;;
27163;SDS011;14685;50.618;7.024;2023-08-06T09:35:18;0.40;;;0.40;;
27163;SDS011;14685;50.618;7.024;2023-08-06T09:37:46;0.30;;;0.30;;
27163;SDS011;14685;50.618;7.024;2023-08-06T09:42:56;1.15;;;0.52;;
27163;SDS011;14685;50.618;7.024;2023-08-06T09:45:24;0.35;;;0.35;;
27163;SDS011;14685;50.618;7.024;2023-08-06T09:47:59;0.30;;;0.30;;
27163;SDS011;14685;50.618;7.024;2023-08-06T09:50:28;0.40;;;0.40;;
27163;SDS011;14685;50.618;7.024;2023-08-06T09:53:02;0.45;;;0.40;;
27163;SDS011;14685;50.618;7.024;2023-08-06T09:55:31;0.75;;;0.40;;
27163;SDS011;14685;50.618;7.024;2023-08-06T09:57:59;0.40;;;0.40;;
27163;SDS011;14685;50.618;7.024;2023-08-06T10:00:29;0.60;;;0.60;;
27163;SDS011;14685;50.618;7.024;2023-08-06T10:02:59;0.55;;;0.55;;
27163;SDS011;14685;50.618;7.024;2023-08-06T10:05:27;1.17;;;0.52;;
27163;SDS011;14685;50.618;7.024;2023-08-06T10:07:55;1.40;;;0.50;;
27163;SDS011;14685;50.618;7.024;2023-08-06T10:10:25;1.05;;;0.70;;
27163;SDS011;14685;50.618;7.024;2023-08-06T10:12:54;1.23;;;0.75;;
27163;SDS011;14685;50.618;7.024;2023-08-06T10:15:24;2.25;;;0.60;;
27163;SDS011;14685;50.618;7.024;2023-08-06T10:17:54;2.60;;;0.85;;
27163;SDS011;14685;50.618;7.024;2023-08-06T10:20:24;2.05;;;0.90;;
27163;SDS011;14685;50.618;7.024;2023-08-06T10:23:00;1.88;;;1.20;;
27163;SDS011;14685;50.618;7.024;2023-08-06T10:25:33;1.92;;;1.50;;
27163;SDS011;14685;50.618;7.024;2023-08-06T10:28:08;1.40;;;0.90;;
27163;SDS011;14685;50.618;7.024;2023-08-06T10:30:45;1.83;;;1.00;;
27163;SDS011;14685;50.618;7.024;2023-08-06T10:33:14;2.78;;;1.15;;
27163;SDS011;14685;50.618;7.024;2023-08-06T10:35:46;1.77;;;1.33;;
27163;SDS011;14685;50.618;7.024;2023-08-06T10:43:29;4.32;;;1.20;;
27163;SDS011;14685;50.618;7.024;2023-08-06T10:46:01;2.55;;;1.40;;
27163;SDS011;14685;50.618;7.024;2023-08-06T10:48:37;2.25;;;1.27;;
27163;SDS011;14685;50.618;7.024;2023-08-06T10:51:12;1.95;;;0.90;;
27163;SDS011;14685;50.618;7.024;2023-08-06T10:53:43;2.03;;;1.10;;
27163;SDS011;14685;50.618;7.024;2023-08-06T10:56:18;2.33;;;1.15;;
27163;SDS011;14685;50.618;7.024;2023-08-06T10:58:46;1.98;;;1.20;;
27163;SDS011;14685;50.618;7.024;2023-08-06T11:01:15;4.28;;;1.17;;
27163;SDS011;14685;50.618;7.024;2023-08-06T11:03:45;2.20;;;1.05;;
27163;SDS011;14685;50.618;7.024;2023-08-06T11:06:17;2.42;;;1.25;;
27163;SDS011;14685;50.618;7.024;2023-08-06T11:08:53;1.73;;;1.23;;
27163;SDS011;14685;50.618;7.024;2023-08-06T11:11:22;1.75;;;1.00;;
27163;SDS011;14685;50.618;7.024;2023-08-06T11:13:50;2.38;;;1.08;;
27163;SDS011;14685;50.618;7.024;2023-08-06T11:16:18;4.40;;;1.40;;
27163;SDS011;14685;50.618;7.024;2023-08-06T11:21:21;3.88;;;1.05;;
27163;SDS011;14685;50.618;7.024;2023-08-06T11:23:48;1.70;;;0.80;;
27163;SDS011;14685;50.618;7.024;2023-08-06T11:26:20;1.42;;;0.88;;
27163;SDS011;14685;50.618;7.024;2023-08-06T11:28:47;3.25;;;1.00;;
27163;SDS011;14685;50.618;7.024;2023-08-06T11:31:21;0.77;;;0.77;;
27163;SDS011;14685;50.618;7.024;2023-08-06T11:33:50;2.20;;;0.88;;
27163;SDS011;14685;50.618;7.024;2023-08-06T11:36:28;2.05;;;0.70;;
27163;SDS011;14685;50.618;7.024;2023-08-06T11:39:03;1.40;;;0.80;;
27163;SDS011;14685;50.618;7.024;2023-08-06T11:41:32;1.95;;;0.80;;
27163;SDS011;14685;50.618;7.024;2023-08-06T11:43:59;1.02;;;0.70;;
27163;SDS011;14685;50.618;7.024;2023-08-06T11:46:26;3.05;;;0.90;;
27163;SDS011;14685;50.618;7.024;2023-08-06T11:48:58;1.40;;;0.60;;
27163;SDS011;14685;50.618;7.024;2023-08-06T11:51:25;1.95;;;1.08;;
27163;SDS011;14685;50.618;7.024;2023-08-06T11:53:56;1.67;;;0.90;;
27163;SDS011;14685;50.618;7.024;2023-08-06T11:56:24;1.65;;;0.90;;
27163;SDS011;14685;50.618;7.024;2023-08-06T11:58:54;1.95;;;0.88;;
27163;SDS011;14685;50.618;7.024;2023-08-06T12:01:23;2.00;;;0.93;;
27163;SDS011;14685;50.618;7.024;2023-08-06T12:03:52;2.15;;;1.15;;
27163;SDS011;14685;50.618;7.024;2023-08-06T12:06:29;1.77;;;0.90;;
27163;SDS011;14685;50.618;7.024;2023-08-06T12:08:55;1.65;;;0.93;;
27163;SDS011;14685;50.618;7.024;2023-08-06T12:11:23;5.25;;;1.20;;
27163;SDS011;14685;50.618;7.024;2023-08-06T12:13:50;1.85;;;0.82;;
27163;SDS011;14685;50.618;7.024;2023-08-06T12:16:18;3.58;;;0.98;;
27163;SDS011;14685;50.618;7.024;2023-08-06T12:18:45;1.95;;;0.80;;
27163;SDS011;14685;50.618;7.024;2023-08-06T12:21:12;2.80;;;0.90;;
27163;SDS011;14685;50.618;7.024;2023-08-06T12:23:39;1.40;;;0.90;;
27163;SDS011;14685;50.618;7.024;2023-08-06T12:26:06;2.88;;;1.08;;
27163;SDS011;14685;50.618;7.024;2023-08-06T12:28:33;2.10;;;0.77;;
27163;SDS011;14685;50.618;7.024;2023-08-06T12:31:00;2.58;;;0.70;;
27163;SDS011;14685;50.618;7.024;2023-08-06T12:33:27;1.92;;;1.10;;
27163;SDS011;14685;50.618;7.024;2023-08-06T12:35:54;2.45;;;1.25;;
27163;SDS011;14685;50.618;7.024;2023-08-06T12:38:21;3.40;;;0.90;;
27163;SDS011;14685;50.618;7.024;2023-08-06T12:40:48;2.85;;;0.80;;
27163;SDS011;14685;50.618;7.024;2023-08-06T12:43:15;3.50;;;1.13;;
27163;SDS011;14685;50.618;7.024;2023-08-06T12:45:42;4.72;;;0.80;;
27163;SDS011;14685;50.618;7.024;2023-08-06T12:48:09;1.75;;;0.95;;
27163;SDS011;14685;50.618;7.024;2023-08-06T12:50:36;2.38;;;0.82;;
27163;SDS011;14685;50.618;7.024;2023-08-06T12:53:03;1.98;;;0.90;;
27163;SDS011;14685;50.618;7.024;2023-08-06T12:55:31;2.63;;;0.93;;
27163;SDS011;14685;50.618;7.024;2023-08-06T12:57:59;1.40;;;0.60;;
27163;SDS011;14685;50.618;7.024;2023-08-06T13:00:26;1.75;;;0.90;;
27163;SDS011;14685;50.618;7.024;2023-08-06T13:02:53;1.55;;;0.68;;
27163;SDS011;14685;50.618;7.024;2023-08-06T13:05:21;1.70;;;0.60;;
27163;SDS011;14685;50.618;7.024;2023-08-06T13:07:49;1.48;;;0.55;;
27163;SDS011;14685;50.618;7.024;2023-08-06T13:10:16;0.50;;;0.47;;
27163;SDS011;14685;50.618;7.024;2023-08-06T13:12:44;2.88;;;0.50;;
27163;SDS011;14685;50.618;7.024;2023-08-06T13:15:12;0.47;;;0.40;;
27163;SDS011;14685;50.618;7.024;2023-08-06T13:17:41;0.30;;;0.30;;
27163;SDS011;14685;50.618;7.024;2023-08-06T13:20:08;0.52;;;0.40;;
27163;SDS011;14685;50.618;7.024;2023-08-06T13:22:35;0.40;;;0.40;;
27163;SDS011;14685;50.618;7.024;2023-08-06T13:25:02;1.40;;;0.60;;
27163;SDS011;14685;50.618;7.024;2023-08-06T13:27:29;2.25;;;0.70;;
27163;SDS011;14685;50.618;7.024;2023-08-06T13:29:57;1.83;;;0.65;;
27163;SDS011;14685;50.618;7.024;2023-08-06T13:32:26;4.00;;;1.10;;
27163;SDS011;14685;50.618;7.024;2023-08-06T13:34:54;4.25;;;2.15;;
27163;SDS011;14685;50.618;7.024;2023-08-06T13:37:21;5.15;;;1.77;;
27163;SDS011;14685;50.618;7.024;2023-08-06T13:39:48;2.92;;;1.30;;
27163;SDS011;14685;50.618;7.024;2023-08-06T13:42:15;2.00;;;0.95;;
27163;SDS011;14685;50.618;7.024;2023-08-06T13:44:42;3.30;;;1.00;;
27163;SDS011;14685;50.618;7.024;2023-08-06T13:47:09;3.53;;;1.25;;
27163;SDS011;14685;50.618;7.024;2023-08-06T13:49:36;3.17;;;1.40;;
27163;SDS011;14685;50.618;7.024;2023-08-06T13:52:03;1.50;;;0.90;;
27163;SDS011;14685;50.618;7.024;2023-08-06T13:54:46;2.40;;;1.10;;
27163;SDS011;14685;50.618;7.024;2023-08-06T13:57:14;2.45;;;1.15;;
27163;SDS011;14685;50.618;7.024;2023-08-06T13:59:41;4.15;;;1.20;;
27163;SDS011;14685;50.618;7.024;2023-08-06T14:02:10;2.78;;;1.27;;
27163;SDS011;14685;50.618;7.024;2023-08-06T14:04:38;6.55;;;1.33;;
27163;SDS011;14685;50.618;7.024;2023-08-06T14:07:07;2.75;;;0.85;;
27163;SDS011;14685;50.618;7.024;2023-08-06T14:09:34;2.33;;;1.00;;
27163;SDS011;14685;50.618;7.024;2023-08-06T14:12:02;2.35;;;0.85;;
27163;SDS011;14685;50.618;7.024;2023-08-06T14:14:29;3.67;;;0.88;;
27163;SDS011;14685;50.618;7.024;2023-08-06T14:16:57;2.40;;;1.00;;
27163;SDS011;14685;50.618;7.024;2023-08-06T14:19:25;2.53;;;1.00;;
27163;SDS011;14685;50.618;7.024;2023-08-06T14:21:52;2.78;;;0.73;;
27163;SDS011;14685;50.618;7.024;2023-08-06T14:24:20;2.00;;;0.70;;
27163;SDS011;14685;50.618;7.024;2023-08-06T14:26:47;1.60;;;0.77;;
27163;SDS011;14685;50.618;7.024;2023-08-06T14:29:14;1.67;;;0.70;;
27163;SDS011;14685;50.618;7.024;2023-08-06T14:31:41;1.48;;;0.57;;
27163;SDS011;14685;50.618;7.024;2023-08-06T14:34:08;1.75;;;0.70;;
27163;SDS011;14685;50.618;7.024;2023-08-06T14:36:38;1.00;;;0.60;;
27163;SDS011;14685;50.618;7.024;2023-08-06T14:39:05;0.73;;;0.70;;
27163;SDS011;14685;50.618;7.024;2023-08-06T14:41:32;3.92;;;0.73;;
27163;SDS011;14685;50.618;7.024;2023-08-06T14:43:59;2.72;;;0.57;;
27163;SDS011;14685;50.618;7.024;2023-08-06T14:46:27;2.47;;;0.80;;
27163;SDS011;14685;50.618;7.024;2023-08-06T14:48:55;3.10;;;0.65;;
27163;SDS011;14685;50.618;7.024;2023-08-06T14:51:21;0.40;;;0.40;;
27163;SDS011;14685;50.618;7.024;2023-08-06T14:53:50;3.15;;;0.60;;
27163;SDS011;14685;50.618;7.024;2023-08-06T14:56:17;0.40;;;0.40;;
27163;SDS011;14685;50.618;7.024;2023-08-06T14:58:44;0.40;;;0.40;;
27163;SDS011;14685;50.618;7.024;2023-08-06T15:01:12;0.40;;;0.40;;
27163;SDS011;14685;50.618;7.024;2023-08-06T15:03:40;0.70;;;0.50;;
27163;SDS011;14685;50.618;7.024;2023-08-06T15:06:07;0.30;;;0.30;;
27163;SDS011;14685;50.618;7.024;2023-08-06T15:08:37;0.40;;;0.40;;
27163;SDS011;14685;50.618;7.024;2023-08-06T15:11:04;0.40;;;0.40;;